Time;durP1;ratioP1;P1;durP2;ratioP2;P2;SDS_P1;SDS_P2;PMS_P1;PMS_P2;Temp;Humidity;BMP_temperature;BMP_pressure;BME280_temperature;BME280_humidity;BME280_pressure;Samples;Min_cycle;Max_cycle;Signal;HPM_P1;HPM_P2
2021/06/16 00:01:02;;;;;;;5.07;2.90;;;;;;;;;;4997585;28;20412;-49
2021/06/16 00:03:28;;;;;;;3.50;2.97;;;;;;;;;;4997723;28;20395;-49
2021/06/16 00:05:54;;;;;;;3.70;2.87;;;;;;;;;;4997592;28;20454;-49
2021/06/16 00:08:20;;;;;;;5.27;2.80;;;;;;;;;;4997661;28;20486;-49
2021/06/16 00:10:46;;;;;;;5.20;2.70;;;;;;;;;;4997727;28;20536;-49
2021/06/16 00:13:12;;;;;;;6.40;3.60;;;;;;;;;;4997459;28;20459;-49
2021/06/16 00:15:40;;;;;;;4.30;3.23;;;;;;;;;;4997640;28;20379;-49
2021/06/16 00:18:06;;;;;;;4.57;3.57;;;;;;;;;;4997351;28;20411;-49
2021/06/16 00:20:32;;;;;;;7.23;3.47;;;;;;;;;;4997826;28;20408;-50
2021/06/16 00:22:58;;;;;;;6.30;3.80;;;;;;;;;;4997415;28;20427;-52
2021/06/16 00:25:25;;;;;;;7.40;3.27;;;;;;;;;;4997636;28;20900;-49
2021/06/16 00:27:51;;;;;;;3.90;3.00;;;;;;;;;;4997582;28;20407;-48
2021/06/16 00:30:17;;;;;;;4.97;3.63;;;;;;;;;;4997541;28;20394;-49
2021/06/16 00:32:43;;;;;;;5.53;3.70;;;;;;;;;;4997273;28;20442;-49
2021/06/16 00:35:10;;;;;;;9.00;3.93;;;;;;;;;;4997838;28;20400;-49
2021/06/16 00:37:36;;;;;;;7.60;3.30;;;;;;;;;;4997190;28;20408;-49
2021/06/16 00:40:10;;;;;;;3.93;3.40;;;;;;;;;;4997523;28;20403;-48
2021/06/16 00:42:36;;;;;;;7.03;3.63;;;;;;;;;;4997084;28;20426;-50
2021/06/16 00:45:02;;;;;;;15.33;3.70;;;;;;;;;;4997515;28;20404;-49
2021/06/16 00:47:28;;;;;;;6.17;4.47;;;;;;;;;;4997102;28;20478;-50
2021/06/16 00:49:54;;;;;;;4.23;3.30;;;;;;;;;;4997568;28;20426;-50
2021/06/16 00:52:20;;;;;;;4.67;3.77;;;;;;;;;;4996878;28;20540;-49
2021/06/16 00:54:46;;;;;;;4.90;3.50;;;;;;;;;;4997368;28;20411;-49
2021/06/16 00:57:12;;;;;;;9.43;3.70;;;;;;;;;;4997196;28;20463;-50
2021/06/16 00:59:46;;;;;;;6.27;3.87;;;;;;;;;;4979823;28;20428;-49
2021/06/16 01:02:13;;;;;;;6.13;4.27;;;;;;;;;;4996762;28;20536;-49
2021/06/16 01:04:39;;;;;;;4.10;3.40;;;;;;;;;;4996501;28;20998;-49
2021/06/16 01:07:09;;;;;;;4.17;3.70;;;;;;;;;;4996944;28;20503;-49
2021/06/16 01:09:44;;;;;;;6.27;4.13;;;;;;;;;;4994735;28;20416;-49
2021/06/16 01:12:16;;;;;;;5.30;3.80;;;;;;;;;;4994063;28;20463;-48
2021/06/16 01:14:43;;;;;;;5.07;4.00;;;;;;;;;;4993973;28;20901;-48
2021/06/16 01:17:10;;;;;;;5.53;4.10;;;;;;;;;;4993932;28;20374;-49
2021/06/16 01:19:41;;;;;;;7.80;4.43;;;;;;;;;;4993976;28;20400;-48
2021/06/16 01:22:11;;;;;;;4.13;3.80;;;;;;;;;;4994007;28;20431;-48
2021/06/16 01:24:41;;;;;;;3.97;3.67;;;;;;;;;;4993897;28;21023;-48
2021/06/16 01:27:07;;;;;;;4.70;4.30;;;;;;;;;;4993900;28;21078;-50
2021/06/16 01:29:35;;;;;;;7.30;3.90;;;;;;;;;;4993854;28;20436;-49
2021/06/16 01:32:01;;;;;;;6.60;4.20;;;;;;;;;;4993955;28;20531;-48
2021/06/16 01:34:27;;;;;;;8.07;4.30;;;;;;;;;;4993881;28;20404;-48
2021/06/16 01:36:55;;;;;;;6.87;5.23;;;;;;;;;;4993905;28;21152;-49
2021/06/16 01:39:27;;;;;;;4.80;4.17;;;;;;;;;;4994116;28;20774;-49
2021/06/16 01:41:55;;;;;;;7.13;4.77;;;;;;;;;;4993832;28;20939;-48
2021/06/16 01:44:22;;;;;;;7.50;5.23;;;;;;;;;;4993619;28;20878;-48
2021/06/16 01:46:49;;;;;;;6.50;4.53;;;;;;;;;;4993476;28;20415;-48
2021/06/16 01:49:16;;;;;;;4.93;4.53;;;;;;;;;;4993373;28;20415;-48
2021/06/16 01:51:42;;;;;;;6.90;4.87;;;;;;;;;;4993322;28;20517;-49
2021/06/16 01:54:12;;;;;;;6.03;4.57;;;;;;;;;;4993109;28;20858;-49
2021/06/16 01:56:38;;;;;;;9.90;4.60;;;;;;;;;;4975748;28;20980;-48
2021/06/16 01:59:06;;;;;;;5.10;4.40;;;;;;;;;;4993310;28;20436;-50
2021/06/16 02:01:32;;;;;;;5.30;4.40;;;;;;;;;;4993283;28;20850;-48
2021/06/16 02:03:58;;;;;;;6.50;4.90;;;;;;;;;;4993057;28;20412;-48
2021/06/16 02:06:29;;;;;;;4.97;4.50;;;;;;;;;;4993218;28;20429;-48
2021/06/16 02:08:55;;;;;;;7.27;5.43;;;;;;;;;;4993093;28;20907;-49
2021/06/16 02:11:22;;;;;;;7.13;4.70;;;;;;;;;;4992991;28;20427;-49
2021/06/16 02:13:53;;;;;;;9.53;4.97;;;;;;;;;;4992951;28;20410;-48
2021/06/16 02:16:25;;;;;;;7.93;4.67;;;;;;;;;;4992766;28;20491;-49
2021/06/16 02:18:53;;;;;;;5.47;4.90;;;;;;;;;;4992950;28;20921;-49
2021/06/16 02:21:20;;;;;;;11.90;5.50;;;;;;;;;;4992384;28;20395;-49
2021/06/16 02:23:46;;;;;;;6.87;5.40;;;;;;;;;;4992758;28;20433;-49
2021/06/16 02:26:13;;;;;;;7.33;5.40;;;;;;;;;;4992479;28;20404;-49
2021/06/16 02:28:39;;;;;;;5.90;5.30;;;;;;;;;;4992763;28;20377;-50
2021/06/16 02:31:05;;;;;;;6.40;5.03;;;;;;;;;;4992953;28;20420;-49
2021/06/16 02:33:31;;;;;;;5.73;5.23;;;;;;;;;;4992606;28;20408;-48
2021/06/16 02:35:58;;;;;;;6.43;5.70;;;;;;;;;;4992482;28;20462;-49
2021/06/16 02:38:26;;;;;;;9.03;5.70;;;;;;;;;;4992534;28;20885;-48
2021/06/16 02:40:54;;;;;;;9.80;5.43;;;;;;;;;;4992319;28;20888;-48
2021/06/16 02:43:21;;;;;;;6.67;5.60;;;;;;;;;;4992361;28;20374;-49
2021/06/16 02:45:48;;;;;;;7.10;5.10;;;;;;;;;;4992324;28;20394;-49
2021/06/16 02:48:15;;;;;;;6.30;5.70;;;;;;;;;;4992364;28;20398;-48
2021/06/16 02:50:42;;;;;;;8.03;4.97;;;;;;;;;;4992178;28;20410;-49
2021/06/16 02:53:10;;;;;;;7.23;5.33;;;;;;;;;;4991997;28;20469;-49
2021/06/16 02:55:37;;;;;;;8.40;5.90;;;;;;;;;;4992190;28;20382;-49
2021/06/16 02:58:04;;;;;;;8.87;5.63;;;;;;;;;;4992046;28;20388;-50
2021/06/16 03:00:31;;;;;;;8.93;5.90;;;;;;;;;;4992086;28;20375;-48
2021/06/16 03:02:57;;;;;;;10.40;6.10;;;;;;;;;;4992090;28;20462;-47
2021/06/16 03:05:24;;;;;;;8.07;6.33;;;;;;;;;;4992048;28;20412;-48
2021/06/16 03:07:51;;;;;;;6.93;6.13;;;;;;;;;;4991956;28;20379;-48
2021/06/16 03:10:18;;;;;;;7.30;5.60;;;;;;;;;;4991991;28;20862;-48
2021/06/16 03:12:44;;;;;;;7.90;5.90;;;;;;;;;;4991835;28;20444;-50
2021/06/16 03:15:11;;;;;;;8.73;6.17;;;;;;;;;;4992103;28;20403;-49
2021/06/16 03:17:37;;;;;;;7.17;6.50;;;;;;;;;;4991905;28;20367;-48
2021/06/16 03:20:04;;;;;;;13.50;6.50;;;;;;;;;;4992071;28;20454;-49
2021/06/16 03:22:31;;;;;;;8.23;6.20;;;;;;;;;;4991638;28;20431;-49
2021/06/16 03:24:57;;;;;;;7.37;6.63;;;;;;;;;;4991877;28;20531;-48
2021/06/16 03:27:25;;;;;;;8.73;6.60;;;;;;;;;;4991479;28;20411;-49
2021/06/16 03:29:52;;;;;;;6.50;5.73;;;;;;;;;;4991844;28;20408;-53
2021/06/16 03:32:18;;;;;;;6.57;5.87;;;;;;;;;;4991110;28;20439;-48
2021/06/16 03:34:44;;;;;;;10.33;6.73;;;;;;;;;;4991612;28;20396;-49
2021/06/16 03:37:11;;;;;;;7.57;5.40;;;;;;;;;;4991283;28;20808;-49
2021/06/16 03:39:37;;;;;;;7.10;6.40;;;;;;;;;;4991586;28;20455;-48
2021/06/16 03:42:04;;;;;;;6.87;6.17;;;;;;;;;;4991367;28;20435;-47
2021/06/16 03:44:31;;;;;;;9.23;6.60;;;;;;;;;;4991545;28;20846;-48
2021/06/16 03:46:57;;;;;;;7.47;6.67;;;;;;;;;;4991312;28;20433;-49
2021/06/16 03:49:25;;;;;;;7.43;6.67;;;;;;;;;;4991468;28;20406;-49
2021/06/16 03:51:51;;;;;;;15.63;6.23;;;;;;;;;;4991003;28;20780;-47
2021/06/16 03:54:19;;;;;;;6.47;5.60;;;;;;;;;;4991332;28;20418;-48
2021/06/16 03:56:45;;;;;;;13.83;6.93;;;;;;;;;;4991116;28;20405;-48
2021/06/16 03:59:12;;;;;;;10.30;6.20;;;;;;;;;;4991358;28;20491;-48
2021/06/16 04:01:38;;;;;;;9.07;6.67;;;;;;;;;;4991140;28;20949;-49
2021/06/16 04:04:05;;;;;;;12.47;6.60;;;;;;;;;;4991250;28;20474;-48
2021/06/16 04:06:31;;;;;;;8.37;6.90;;;;;;;;;;4990982;28;20431;-49
2021/06/16 04:08:57;;;;;;;7.40;6.60;;;;;;;;;;4991246;28;20438;-49
2021/06/16 04:11:23;;;;;;;15.60;6.23;;;;;;;;;;4991026;28;20489;-49
2021/06/16 04:13:50;;;;;;;11.93;7.27;;;;;;;;;;4991214;28;20487;-49
2021/06/16 04:16:16;;;;;;;7.13;6.10;;;;;;;;;;4991013;28;20474;-48
2021/06/16 04:18:43;;;;;;;8.83;6.60;;;;;;;;;;4991038;28;20378;-48
2021/06/16 04:21:09;;;;;;;9.30;6.53;;;;;;;;;;4991093;28;20478;-49
2021/06/16 04:23:35;;;;;;;9.97;7.07;;;;;;;;;;4990878;28;20383;-49
2021/06/16 04:26:01;;;;;;;8.57;6.53;;;;;;;;;;4990996;28;20374;-49
2021/06/16 04:28:27;;;;;;;8.40;6.80;;;;;;;;;;4990994;28;20379;-48
2021/06/16 04:30:53;;;;;;;12.30;7.00;;;;;;;;;;4991123;28;20404;-49
2021/06/16 04:33:19;;;;;;;7.70;6.87;;;;;;;;;;4990789;28;20830;-48
2021/06/16 04:35:45;;;;;;;9.33;7.13;;;;;;;;;;4991023;28;20377;-48
2021/06/16 04:38:11;;;;;;;6.87;5.70;;;;;;;;;;4990714;28;20378;-48
2021/06/16 04:40:37;;;;;;;8.50;6.43;;;;;;;;;;4991243;28;20466;-49
2021/06/16 04:43:03;;;;;;;15.10;6.63;;;;;;;;;;4990710;28;20903;-48
2021/06/16 04:45:29;;;;;;;10.67;8.10;;;;;;;;;;4993903;28;20383;-49
2021/06/16 04:47:55;;;;;;;18.33;7.90;;;;;;;;;;4994357;28;20735;-48
2021/06/16 04:50:21;;;;;;;8.13;7.33;;;;;;;;;;4994654;28;20386;-48
2021/06/16 04:52:47;;;;;;;10.13;7.60;;;;;;;;;;4994112;28;20545;-48
2021/06/16 04:55:13;;;;;;;10.53;7.20;;;;;;;;;;4993969;28;20383;-49
2021/06/16 04:57:39;;;;;;;10.80;7.33;;;;;;;;;;4993547;28;20491;-49
2021/06/16 05:00:06;;;;;;;8.83;6.60;;;;;;;;;;4994146;28;20446;-48
2021/06/16 05:02:32;;;;;;;14.30;7.97;;;;;;;;;;4993728;28;20406;-48
2021/06/16 05:04:58;;;;;;;8.23;7.00;;;;;;;;;;4993666;28;20735;-48
2021/06/16 05:07:23;;;;;;;9.90;8.23;;;;;;;;;;4993708;28;20466;-49
2021/06/16 05:09:49;;;;;;;12.93;7.40;;;;;;;;;;4993530;28;20379;-48
2021/06/16 05:12:16;;;;;;;13.13;7.30;;;;;;;;;;4995802;28;20433;-50
2021/06/16 05:14:41;;;;;;;8.90;7.80;;;;;;;;;;4997568;28;20383;-48
2021/06/16 05:17:08;;;;;;;13.13;8.00;;;;;;;;;;4997332;28;20379;-48
2021/06/16 05:19:34;;;;;;;8.50;7.40;;;;;;;;;;4997688;28;20411;-48
2021/06/16 05:22:05;;;;;;;15.77;8.40;;;;;;;;;;4997551;28;20431;-48
2021/06/16 05:24:31;;;;;;;9.03;8.00;;;;;;;;;;4997759;28;20767;-48
2021/06/16 05:26:57;;;;;;;9.43;7.80;;;;;;;;;;4997612;28;20572;-50
2021/06/16 05:29:23;;;;;;;10.93;7.90;;;;;;;;;;4997592;28;20401;-49
2021/06/16 05:31:49;;;;;;;12.30;7.70;;;;;;;;;;4997847;28;20509;-49
2021/06/16 05:34:15;;;;;;;12.00;7.93;;;;;;;;;;4997432;28;20388;-49
2021/06/16 05:36:41;;;;;;;9.73;8.33;;;;;;;;;;4997400;28;20383;-48
2021/06/16 05:39:07;;;;;;;12.70;7.90;;;;;;;;;;4998231;28;20458;-48
2021/06/16 05:41:33;;;;;;;16.23;8.30;;;;;;;;;;4998209;28;20416;-48
2021/06/16 05:43:59;;;;;;;10.57;8.20;;;;;;;;;;4998331;28;20408;-48
2021/06/16 05:46:24;;;;;;;13.37;8.80;;;;;;;;;;4998901;28;20378;-48
2021/06/16 05:48:50;;;;;;;10.27;8.13;;;;;;;;;;4998551;28;20382;-48
2021/06/16 05:51:16;;;;;;;12.10;8.73;;;;;;;;;;4999421;28;20474;-48
2021/06/16 05:53:42;;;;;;;11.03;8.70;;;;;;;;;;4999561;28;20419;-48
2021/06/16 05:56:08;;;;;;;14.97;8.33;;;;;;;;;;4999005;28;20724;-48
2021/06/16 05:58:34;;;;;;;11.03;8.00;;;;;;;;;;5000761;28;20404;-48
2021/06/16 06:01:00;;;;;;;25.37;8.40;;;;;;;;;;5000254;28;20404;-48
2021/06/16 06:03:26;;;;;;;10.30;9.00;;;;;;;;;;5000323;28;20416;-48
2021/06/16 06:05:52;;;;;;;12.30;9.17;;;;;;;;;;4999706;28;20408;-48
2021/06/16 06:08:18;;;;;;;15.47;8.87;;;;;;;;;;5000724;28;20414;-48
2021/06/16 06:10:44;;;;;;;14.93;8.53;;;;;;;;;;5000445;28;20454;-48
2021/06/16 06:13:10;;;;;;;10.87;7.60;;;;;;;;;;5001229;28;20494;-49
2021/06/16 06:15:36;;;;;;;9.17;7.77;;;;;;;;;;5001635;28;20400;-49
2021/06/16 06:18:02;;;;;;;12.03;8.20;;;;;;;;;;5001795;28;20912;-48
2021/06/16 06:20:28;;;;;;;13.00;8.30;;;;;;;;;;5001190;28;20400;-48
2021/06/16 06:22:56;;;;;;;12.30;8.57;;;;;;;;;;5001333;28;20443;-49
2021/06/16 06:25:22;;;;;;;10.10;8.03;;;;;;;;;;5001327;28;20412;-48
2021/06/16 06:27:48;;;;;;;18.70;8.63;;;;;;;;;;5001588;28;20415;-49
2021/06/16 06:30:14;;;;;;;8.53;7.63;;;;;;;;;;5002197;28;20503;-49
2021/06/16 06:32:40;;;;;;;16.60;7.83;;;;;;;;;;5001231;28;20452;-49
2021/06/16 06:35:06;;;;;;;10.30;7.10;;;;;;;;;;5000857;28;20411;-51
2021/06/16 06:37:32;;;;;;;9.07;6.70;;;;;;;;;;5001284;28;20402;-49
2021/06/16 06:39:58;;;;;;;9.37;6.67;;;;;;;;;;5001890;28;20435;-50
2021/06/16 06:42:24;;;;;;;14.10;9.07;;;;;;;;;;5001848;28;20437;-48
2021/06/16 06:44:50;;;;;;;11.50;8.30;;;;;;;;;;5001604;28;20786;-49
2021/06/16 06:47:16;;;;;;;11.50;7.90;;;;;;;;;;5001981;28;20414;-49
2021/06/16 06:49:42;;;;;;;11.13;7.80;;;;;;;;;;4984501;28;20448;-49
2021/06/16 06:52:08;;;;;;;8.77;7.80;;;;;;;;;;5001640;28;20466;-49
2021/06/16 06:54:35;;;;;;;11.93;7.43;;;;;;;;;;5001902;28;20375;-49
2021/06/16 06:57:01;;;;;;;10.33;6.83;;;;;;;;;;5001692;28;20415;-49
2021/06/16 06:59:27;;;;;;;7.20;6.23;;;;;;;;;;5002144;28;20415;-48
2021/06/16 07:01:53;;;;;;;13.07;7.40;;;;;;;;;;5002262;28;20424;-49
2021/06/16 07:04:19;;;;;;;11.40;7.07;;;;;;;;;;5001424;28;20523;-50
2021/06/16 07:06:45;;;;;;;9.87;7.83;;;;;;;;;;5001525;28;20404;-51
2021/06/16 07:09:11;;;;;;;7.83;7.03;;;;;;;;;;5001934;28;20408;-51
2021/06/16 07:11:37;;;;;;;7.23;6.53;;;;;;;;;;5002888;28;20467;-49
2021/06/16 07:14:03;;;;;;;8.60;7.00;;;;;;;;;;5002870;28;20403;-51
2021/06/16 07:16:29;;;;;;;13.90;6.00;;;;;;;;;;5002679;28;20411;-50
2021/06/16 07:18:55;;;;;;;12.33;6.47;;;;;;;;;;5004847;28;20922;-50
2021/06/16 07:21:21;;;;;;;7.43;6.40;;;;;;;;;;5002471;28;20416;-49
2021/06/16 07:23:47;;;;;;;8.70;6.00;;;;;;;;;;5001042;28;20404;-49
2021/06/16 07:26:13;;;;;;;8.00;6.97;;;;;;;;;;5001738;28;20410;-48
2021/06/16 07:28:39;;;;;;;10.13;6.33;;;;;;;;;;5002974;28;20468;-50
2021/06/16 07:31:05;;;;;;;6.47;5.87;;;;;;;;;;5002662;28;20424;-50
2021/06/16 07:33:31;;;;;;;7.30;5.50;;;;;;;;;;5002126;28;20486;-49
2021/06/16 07:35:57;;;;;;;6.97;6.27;;;;;;;;;;5002790;28;20400;-50
2021/06/16 07:38:23;;;;;;;6.23;5.60;;;;;;;;;;5002608;28;20412;-49
2021/06/16 07:40:49;;;;;;;5.70;5.20;;;;;;;;;;5002680;28;20397;-49
2021/06/16 07:43:15;;;;;;;5.67;5.17;;;;;;;;;;5002090;28;20400;-49
2021/06/16 07:45:41;;;;;;;5.50;5.00;;;;;;;;;;5002079;28;20431;-49
2021/06/16 07:48:08;;;;;;;6.13;5.53;;;;;;;;;;5002553;28;20412;-50
2021/06/16 07:50:36;;;;;;;8.37;5.10;;;;;;;;;;5001776;28;20431;-50
2021/06/16 07:53:04;;;;;;;6.03;5.53;;;;;;;;;;5000980;28;20463;-50
2021/06/16 07:55:30;;;;;;;6.07;5.57;;;;;;;;;;5002233;28;20408;-50
2021/06/16 07:57:56;;;;;;;7.03;4.90;;;;;;;;;;5005157;28;20416;-49
2021/06/16 08:00:22;;;;;;;6.77;5.47;;;;;;;;;;5003800;28;20404;-49
2021/06/16 08:02:48;;;;;;;5.87;5.30;;;;;;;;;;5003028;28;20983;-49
2021/06/16 08:05:14;;;;;;;5.60;5.10;;;;;;;;;;5003458;28;20503;-49
2021/06/16 08:07:40;;;;;;;9.57;5.50;;;;;;;;;;5003172;28;20400;-48
2021/06/16 08:10:07;;;;;;;7.10;5.63;;;;;;;;;;5004134;28;20412;-49
2021/06/16 08:12:33;;;;;;;8.90;5.53;;;;;;;;;;5003165;28;20550;-49
2021/06/16 08:14:59;;;;;;;8.00;5.53;;;;;;;;;;5003173;28;20408;-48
2021/06/16 08:17:25;;;;;;;8.53;5.47;;;;;;;;;;5002349;28;20439;-49
2021/06/16 08:19:50;;;;;;;9.63;5.33;;;;;;;;;;5005033;28;20407;-48
2021/06/16 08:22:18;;;;;;;7.63;5.60;;;;;;;;;;4988904;28;20435;-49
2021/06/16 08:24:44;;;;;;;8.07;5.77;;;;;;;;;;5004403;28;20415;-49
2021/06/16 08:27:10;;;;;;;6.20;5.03;;;;;;;;;;5004852;28;20404;-48
2021/06/16 08:29:36;;;;;;;7.03;6.10;;;;;;;;;;5003747;28;20466;-49
2021/06/16 08:32:03;;;;;;;5.97;5.37;;;;;;;;;;5002639;28;20959;-49
2021/06/16 08:34:29;;;;;;;13.20;6.30;;;;;;;;;;5002385;28;20436;-49
2021/06/16 08:36:55;;;;;;;6.60;5.27;;;;;;;;;;5002010;28;20411;-49
2021/06/16 08:39:21;;;;;;;6.33;5.40;;;;;;;;;;5002198;28;20839;-49
2021/06/16 08:41:48;;;;;;;6.10;5.50;;;;;;;;;;5001811;28;20434;-48
2021/06/16 08:44:15;;;;;;;7.50;5.47;;;;;;;;;;5000615;28;20462;-49
2021/06/16 08:46:41;;;;;;;5.80;4.90;;;;;;;;;;5000275;28;20898;-51
2021/06/16 08:49:07;;;;;;;5.73;5.03;;;;;;;;;;5000911;28;20876;-51
2021/06/16 08:51:34;;;;;;;7.73;5.17;;;;;;;;;;5001336;28;20554;-50
2021/06/16 08:54:00;;;;;;;8.53;5.03;;;;;;;;;;5001052;28;20518;-49
2021/06/16 08:56:26;;;;;;;13.33;4.97;;;;;;;;;;4986535;28;20419;-48
2021/06/16 08:58:52;;;;;;;6.27;4.80;;;;;;;;;;4993091;28;20440;-47
2021/06/16 09:01:20;;;;;;;6.47;4.27;;;;;;;;;;4995970;28;20428;-49
2021/06/16 09:03:46;;;;;;;5.30;4.87;;;;;;;;;;4999923;28;20408;-50
2021/06/16 09:06:12;;;;;;;4.77;4.40;;;;;;;;;;5000835;28;20432;-50
2021/06/16 09:08:54;;;;;;;11.70;5.40;;;;;;;;;;4989648;28;20598;-50
2021/06/16 09:11:21;;;;;;;17.90;5.60;;;;;;;;;;4998324;28;20855;-52
2021/06/16 09:13:47;;;;;;;6.60;4.97;;;;;;;;;;4998928;28;20931;-50
2021/06/16 09:16:26;;;;;;;7.20;5.17;;;;;;;;;;4996244;28;20400;-49
2021/06/16 09:18:52;;;;;;;4.87;4.47;;;;;;;;;;5010681;28;21014;-49
2021/06/16 09:21:31;;;;;;;9.13;5.33;;;;;;;;;;5003716;28;20424;-50
2021/06/16 09:23:57;;;;;;;5.50;5.07;;;;;;;;;;4981844;28;20400;-48
2021/06/16 09:26:23;;;;;;;5.00;4.60;;;;;;;;;;4990983;28;20404;-50
2021/06/16 09:28:51;;;;;;;10.53;5.10;;;;;;;;;;5002296;28;20402;-51
2021/06/16 09:31:18;;;;;;;5.47;4.50;;;;;;;;;;4985818;28;20472;-50
2021/06/16 09:33:44;;;;;;;5.20;4.60;;;;;;;;;;4985533;28;20487;-49
2021/06/16 09:36:13;;;;;;;7.90;4.50;;;;;;;;;;4998873;28;20405;-51
2021/06/16 09:38:39;;;;;;;6.43;5.57;;;;;;;;;;4998907;28;20929;-49
2021/06/16 09:41:09;;;;;;;6.20;4.47;;;;;;;;;;4998198;28;20431;-51
2021/06/16 09:43:36;;;;;;;5.07;4.50;;;;;;;;;;4980707;28;20563;-49
2021/06/16 09:46:03;;;;;;;7.50;5.57;;;;;;;;;;4999876;28;20478;-50
2021/06/16 09:48:34;;;;;;;6.47;5.20;;;;;;;;;;5001753;28;20492;-49
2021/06/16 09:51:18;;;;;;;7.50;5.27;;;;;;;;;;4995728;28;20486;-50
2021/06/16 09:54:11;;;;;;;13.37;5.30;;;;;;;;;;5000300;28;20464;-49
2021/06/16 09:56:37;;;;;;;7.53;5.37;;;;;;;;;;4995861;28;20397;-51
2021/06/16 09:59:04;;;;;;;5.40;4.90;;;;;;;;;;4990290;28;20816;-50
2021/06/16 10:01:50;;;;;;;8.40;5.20;;;;;;;;;;4987060;28;20429;-50
2021/06/16 10:04:32;;;;;;;6.00;5.07;;;;;;;;;;4987546;28;20420;-50
2021/06/16 10:07:11;;;;;;;5.63;5.13;;;;;;;;;;4982691;28;20409;-49
2021/06/16 10:09:38;;;;;;;5.70;5.20;;;;;;;;;;4981120;28;20441;-50
2021/06/16 10:12:05;;;;;;;6.27;5.03;;;;;;;;;;4982173;28;20461;-50
2021/06/16 10:14:31;;;;;;;5.87;5.30;;;;;;;;;;4982364;28;20909;-49
2021/06/16 10:16:58;;;;;;;7.83;5.83;;;;;;;;;;4982197;28;20405;-50
2021/06/16 10:19:24;;;;;;;9.30;6.07;;;;;;;;;;4982171;28;20448;-51
2021/06/16 10:21:50;;;;;;;6.23;5.63;;;;;;;;;;4982096;28;20425;-50
2021/06/16 10:24:16;;;;;;;9.70;6.00;;;;;;;;;;4981809;28;20424;-50
2021/06/16 10:26:43;;;;;;;6.73;5.97;;;;;;;;;;4982416;28;20404;-49
2021/06/16 10:29:13;;;;;;;5.93;5.53;;;;;;;;;;4982177;28;20409;-50
2021/06/16 10:31:40;;;;;;;6.70;6.10;;;;;;;;;;4982231;28;20425;-50
2021/06/16 10:34:07;;;;;;;5.93;5.30;;;;;;;;;;4982119;28;20401;-50
2021/06/16 10:36:35;;;;;;;5.83;5.30;;;;;;;;;;4981631;28;20865;-50
2021/06/16 10:39:01;;;;;;;7.03;6.37;;;;;;;;;;4982450;28;20413;-50
2021/06/16 10:41:48;;;;;;;8.80;6.07;;;;;;;;;;4981534;28;20429;-50
2021/06/16 10:44:16;;;;;;;9.33;6.37;;;;;;;;;;4980977;28;20885;-50
2021/06/16 10:47:00;;;;;;;7.53;5.90;;;;;;;;;;4980458;28;20401;-50
2021/06/16 10:49:49;;;;;;;7.70;6.10;;;;;;;;;;4979936;28;20401;-50
2021/06/16 10:52:16;;;;;;;8.10;5.70;;;;;;;;;;4979246;28;20495;-50
2021/06/16 10:54:57;;;;;;;10.43;5.97;;;;;;;;;;4962268;28;20428;-50
2021/06/16 10:57:23;;;;;;;12.30;6.37;;;;;;;;;;4979278;28;20416;-51
2021/06/16 10:59:50;;;;;;;6.50;5.90;;;;;;;;;;4978466;28;20420;-51
2021/06/16 11:02:41;;;;;;;7.27;6.57;;;;;;;;;;4979339;28;20460;-50
2021/06/16 11:05:27;;;;;;;7.90;6.50;;;;;;;;;;4988197;28;20416;-51
2021/06/16 11:07:54;;;;;;;8.50;6.33;;;;;;;;;;4985490;28;20427;-49
2021/06/16 11:10:20;;;;;;;7.87;5.80;;;;;;;;;;4978985;28;20428;-50
2021/06/16 11:12:47;;;;;;;9.73;6.00;;;;;;;;;;4986104;28;20466;-51
2021/06/16 11:15:25;;;;;;;10.93;6.60;;;;;;;;;;4997900;28;20408;-50
2021/06/16 11:17:55;;;;;;;8.07;6.13;;;;;;;;;;4997966;28;20408;-50
2021/06/16 11:20:22;;;;;;;6.43;5.80;;;;;;;;;;4986341;28;20405;-52
2021/06/16 11:22:52;;;;;;;9.80;5.83;;;;;;;;;;4985436;28;20511;-51
2021/06/16 11:25:18;;;;;;;6.70;6.07;;;;;;;;;;4985886;28;20788;-52
2021/06/16 11:27:57;;;;;;;6.40;5.70;;;;;;;;;;4988170;28;20416;-52
2021/06/16 11:30:38;;;;;;;8.93;6.47;;;;;;;;;;4985651;28;20828;-50
2021/06/16 11:33:13;;;;;;;15.13;6.00;;;;;;;;;;4978116;28;20472;-50
2021/06/16 11:35:40;;;;;;;10.00;5.20;;;;;;;;;;4977965;28;20399;-52
2021/06/16 11:38:06;;;;;;;9.23;5.30;;;;;;;;;;4969390;28;20409;-49
2021/06/16 11:40:32;;;;;;;5.20;4.70;;;;;;;;;;4989607;28;20396;-48
2021/06/16 11:42:59;;;;;;;7.40;4.53;;;;;;;;;;4993320;28;20800;-50
2021/06/16 11:45:29;;;;;;;5.20;4.57;;;;;;;;;;4970745;28;20758;-51
2021/06/16 11:47:56;;;;;;;4.60;4.30;;;;;;;;;;4986954;28;20466;-52
2021/06/16 11:50:35;;;;;;;11.57;5.10;;;;;;;;;;4972946;28;20413;-50
2021/06/16 11:53:03;;;;;;;5.03;4.63;;;;;;;;;;4969361;28;20506;-52
2021/06/16 11:56:12;;;;;;;9.20;4.20;;;;;;;;;;4997427;28;20509;-51
2021/06/16 11:58:39;;;;;;;5.57;3.80;;;;;;;;;;4980572;28;20434;-49
2021/06/16 12:01:08;;;;;;;5.00;4.60;;;;;;;;;;4998231;28;20452;-51
2021/06/16 12:03:34;;;;;;;4.30;4.00;;;;;;;;;;4996850;28;20403;-52
2021/06/16 12:06:01;;;;;;;4.40;3.90;;;;;;;;;;4996187;28;20904;-49
2021/06/16 12:08:27;;;;;;;4.30;4.00;;;;;;;;;;4995217;28;20491;-50
2021/06/16 12:10:53;;;;;;;4.40;4.00;;;;;;;;;;4996221;28;20421;-49
2021/06/16 12:13:19;;;;;;;6.93;4.27;;;;;;;;;;4995685;28;20462;-50
2021/06/16 12:15:45;;;;;;;4.70;4.27;;;;;;;;;;4995405;28;20412;-50
2021/06/16 12:18:15;;;;;;;5.20;4.60;;;;;;;;;;4993579;28;20169;-51
2021/06/16 12:20:43;;;;;;;4.47;3.90;;;;;;;;;;4993998;28;20404;-51
2021/06/16 12:23:25;;;;;;;5.43;4.20;;;;;;;;;;4995239;28;20422;-50
2021/06/16 12:25:52;;;;;;;4.10;3.80;;;;;;;;;;4994326;28;20419;-51
2021/06/16 12:28:18;;;;;;;9.30;4.00;;;;;;;;;;4993858;28;20408;-50
2021/06/16 12:30:45;;;;;;;4.70;4.27;;;;;;;;;;4992590;28;20409;-52
2021/06/16 12:33:19;;;;;;;5.23;4.10;;;;;;;;;;4992977;28;20462;-52
2021/06/16 12:36:08;;;;;;;4.10;3.70;;;;;;;;;;4993940;28;20434;-50
2021/06/16 12:38:34;;;;;;;6.97;4.10;;;;;;;;;;5004031;28;20962;-51
2021/06/16 12:41:00;;;;;;;4.93;4.57;;;;;;;;;;5011005;28;20479;-50
2021/06/16 12:43:28;;;;;;;4.30;3.90;;;;;;;;;;5011684;28;20883;-51
2021/06/16 12:45:57;;;;;;;3.90;3.70;;;;;;;;;;5010239;28;20407;-50
2021/06/16 12:48:26;;;;;;;5.50;3.47;;;;;;;;;;5011310;28;20472;-49
2021/06/16 12:50:53;;;;;;;4.30;3.93;;;;;;;;;;5009724;28;20789;-50
2021/06/16 12:53:20;;;;;;;6.10;4.40;;;;;;;;;;5009124;28;20549;-50
2021/06/16 12:55:51;;;;;;;11.80;4.20;;;;;;;;;;5010476;28;20407;-50
2021/06/16 12:58:17;;;;;;;4.47;4.17;;;;;;;;;;5009743;28;20794;-51
2021/06/16 13:00:44;;;;;;;7.63;4.27;;;;;;;;;;5009983;28;20403;-50
2021/06/16 13:03:10;;;;;;;7.60;4.77;;;;;;;;;;5010642;28;20474;-49
2021/06/16 13:05:36;;;;;;;6.63;4.07;;;;;;;;;;5012861;28;20407;-49
2021/06/16 13:08:03;;;;;;;4.37;3.97;;;;;;;;;;5014175;28;20403;-51
2021/06/16 13:10:40;;;;;;;4.57;4.17;;;;;;;;;;5014433;28;20411;-51
2021/06/16 13:13:16;;;;;;;4.67;3.67;;;;;;;;;;5013834;28;20462;-51
2021/06/16 13:15:45;;;;;;;4.47;3.67;;;;;;;;;;5014175;28;20399;-52
2021/06/16 13:18:17;;;;;;;3.83;3.53;;;;;;;;;;5013593;28;20891;-52
2021/06/16 13:20:44;;;;;;;3.93;3.63;;;;;;;;;;5013792;28;20899;-52
2021/06/16 13:23:27;;;;;;;5.57;4.33;;;;;;;;;;5013778;28;20425;-51
2021/06/16 13:25:54;;;;;;;3.63;3.43;;;;;;;;;;5014075;28;20425;-47
2021/06/16 13:28:30;;;;;;;3.90;3.60;;;;;;;;;;5013900;28;20403;-54
2021/06/16 13:30:58;;;;;;;3.90;3.70;;;;;;;;;;5014016;28;20418;-49
2021/06/16 13:33:38;;;;;;;4.80;3.80;;;;;;;;;;5013727;28;20797;-52
2021/06/16 13:36:11;;;;;;;5.87;3.70;;;;;;;;;;5013535;28;20407;-52
2021/06/16 13:38:42;;;;;;;3.80;3.50;;;;;;;;;;5013393;28;20423;-53
2021/06/16 13:41:09;;;;;;;4.63;3.63;;;;;;;;;;5013524;28;20427;-52
2021/06/16 13:43:35;;;;;;;4.83;3.70;;;;;;;;;;5013352;28;20407;-48
2021/06/16 13:46:01;;;;;;;7.27;4.40;;;;;;;;;;5013478;28;20487;-48
2021/06/16 13:48:27;;;;;;;4.90;4.60;;;;;;;;;;5013808;28;20462;-49
2021/06/16 13:50:53;;;;;;;5.30;4.80;;;;;;;;;;5013683;28;20407;-50
2021/06/16 13:53:20;;;;;;;5.27;4.30;;;;;;;;;;5001379;28;20475;-49
2021/06/16 13:55:46;;;;;;;5.30;4.87;;;;;;;;;;4993393;28;20415;-50
2021/06/16 13:58:13;;;;;;;10.53;4.53;;;;;;;;;;4993269;28;20396;-52
2021/06/16 14:00:39;;;;;;;5.87;4.17;;;;;;;;;;4993315;28;20412;-51
2021/06/16 14:03:07;;;;;;;4.20;4.00;;;;;;;;;;4993308;28;20474;-51
2021/06/16 14:05:33;;;;;;;4.67;4.30;;;;;;;;;;4993121;28;20416;-51
2021/06/16 14:07:59;;;;;;;3.87;3.63;;;;;;;;;;4993003;28;20435;-51
2021/06/16 14:10:25;;;;;;;4.53;4.23;;;;;;;;;;4993134;28;20462;-51
2021/06/16 14:12:50;;;;;;;4.20;4.00;;;;;;;;;;4993025;28;20204;-51
2021/06/16 14:15:16;;;;;;;6.33;4.50;;;;;;;;;;4992880;28;20783;-50
2021/06/16 14:17:44;;;;;;;4.80;4.40;;;;;;;;;;4992436;28;20536;-50
2021/06/16 14:20:10;;;;;;;5.00;4.60;;;;;;;;;;4993048;28;20446;-52
2021/06/16 14:22:37;;;;;;;4.60;4.30;;;;;;;;;;4993069;28;20432;-50
2021/06/16 14:25:03;;;;;;;4.77;4.37;;;;;;;;;;4993248;28;20408;-50
2021/06/16 14:27:29;;;;;;;4.97;4.40;;;;;;;;;;4992766;28;20404;-50
2021/06/16 14:29:55;;;;;;;6.80;4.60;;;;;;;;;;4992833;28;20400;-50
2021/06/16 14:32:21;;;;;;;4.67;4.27;;;;;;;;;;4985196;28;20468;-51
2021/06/16 14:34:50;;;;;;;5.93;4.40;;;;;;;;;;4992966;28;20491;-51
2021/06/16 14:37:16;;;;;;;4.53;4.10;;;;;;;;;;4992313;28;20180;-53
2021/06/16 14:39:42;;;;;;;4.70;4.30;;;;;;;;;;4992621;28;20487;-53
2021/06/16 14:42:08;;;;;;;4.23;3.80;;;;;;;;;;4992558;28;20423;-51
2021/06/16 14:44:34;;;;;;;6.77;3.80;;;;;;;;;;4992508;28;20416;-51